Time;durP1;ratioP1;P1;durP2;ratioP2;P2;SDS_P1;SDS_P2;PMS_P1;PMS_P2;Temp;Humidity;BMP_temperature;BMP_pressure;BME280_temperature;BME280_humidity;BME280_pressure;Samples;Min_cycle;Max_cycle;Signal;HPM_P1;HPM_P2
2023/04/04 00:00:48;;;;;;;61.53;4.50;;;;;;;;;;5071405;28;20205;-66
2023/04/04 00:03:15;;;;;;;60.35;4.70;;;;;;;;;;5071448;28;20224;-67
2023/04/04 00:05:43;;;;;;;61.20;4.63;;;;;;;;;;5071469;28;20588;-67
2023/04/04 00:08:11;;;;;;;58.90;4.53;;;;;;;;;;5071167;28;20323;-67
2023/04/04 00:10:40;;;;;;;59.05;4.40;;;;;;;;;;5071313;28;20204;-68
2023/04/04 00:13:07;;;;;;;58.78;4.65;;;;;;;;;;5071852;28;20650;-68
2023/04/04 00:15:35;;;;;;;61.38;5.05;;;;;;;;;;5071417;28;20209;-69
2023/04/04 00:18:02;;;;;;;59.53;4.90;;;;;;;;;;5071125;28;20733;-66
2023/04/04 00:20:30;;;;;;;60.08;5.10;;;;;;;;;;5074609;28;20211;-67
2023/04/04 00:22:57;;;;;;;59.95;5.05;;;;;;;;;;5075144;28;20644;-68
2023/04/04 00:25:24;;;;;;;61.58;5.45;;;;;;;;;;5075001;28;20227;-67
2023/04/04 00:27:53;;;;;;;64.57;5.15;;;;;;;;;;5075061;28;20233;-68
2023/04/04 00:30:20;;;;;;;59.70;4.60;;;;;;;;;;5074657;28;20194;-67
2023/04/04 00:32:47;;;;;;;58.90;4.88;;;;;;;;;;5074880;28;20227;-67
2023/04/04 00:35:14;;;;;;;60.22;4.88;;;;;;;;;;5074756;28;20205;-67
2023/04/04 00:37:42;;;;;;;60.25;4.78;;;;;;;;;;5074909;28;20272;-67
2023/04/04 00:40:09;;;;;;;59.08;4.90;;;;;;;;;;5074329;28;20300;-67
2023/04/04 00:42:37;;;;;;;59.83;4.85;;;;;;;;;;5074893;28;20235;-67
2023/04/04 00:45:07;;;;;;;58.60;4.50;;;;;;;;;;5074671;28;20263;-66
2023/04/04 00:47:34;;;;;;;62.45;5.07;;;;;;;;;;5074452;28;20228;-67
2023/04/04 00:50:02;;;;;;;61.17;5.57;;;;;;;;;;5074113;28;20213;-67
2023/04/04 00:52:29;;;;;;;60.65;5.28;;;;;;;;;;5074749;28;20209;-67
2023/04/04 00:54:56;;;;;;;59.15;4.38;;;;;;;;;;5074490;28;20703;-67
2023/04/04 00:57:23;;;;;;;61.67;5.10;;;;;;;;;;5074452;28;20220;-67
2023/04/04 00:59:51;;;;;;;59.70;4.85;;;;;;;;;;5074061;28;20220;-67
2023/04/04 01:02:19;;;;;;;65.25;5.38;;;;;;;;;;5074347;28;20205;-68
2023/04/04 01:04:47;;;;;;;59.25;4.68;;;;;;;;;;5074667;28;20215;-67
2023/04/04 01:07:14;;;;;;;61.10;5.38;;;;;;;;;;5074280;28;20299;-67
2023/04/04 01:09:42;;;;;;;61.85;5.85;;;;;;;;;;5073821;28;20223;-67
2023/04/04 01:12:09;;;;;;;60.55;4.78;;;;;;;;;;5074178;28;20260;-67
2023/04/04 01:14:36;;;;;;;60.25;5.18;;;;;;;;;;5074194;28;20207;-67
2023/04/04 01:17:03;;;;;;;60.67;5.00;;;;;;;;;;5074014;28;20240;-67
2023/04/04 01:19:34;;;;;;;58.97;4.78;;;;;;;;;;5073614;28;20219;-69
2023/04/04 01:22:02;;;;;;;59.97;5.50;;;;;;;;;;5074262;28;20204;-67
2023/04/04 01:24:33;;;;;;;59.75;5.30;;;;;;;;;;5073946;28;20232;-67
2023/04/04 01:27:02;;;;;;;59.67;5.97;;;;;;;;;;5072001;28;20213;-67
2023/04/04 01:29:29;;;;;;;62.00;5.35;;;;;;;;;;5073302;28;20201;-68
2023/04/04 01:31:58;;;;;;;62.03;5.63;;;;;;;;;;5073788;28;20695;-66
2023/04/04 01:34:30;;;;;;;60.13;4.72;;;;;;;;;;5073781;28;20200;-68
2023/04/04 01:37:01;;;;;;;60.17;5.60;;;;;;;;;;5073600;28;20220;-67
2023/04/04 01:39:32;;;;;;;60.67;5.10;;;;;;;;;;5073289;28;20208;-67
2023/04/04 01:41:59;;;;;;;59.72;4.65;;;;;;;;;;5073749;28;20227;-68
2023/04/04 01:44:28;;;;;;;61.13;5.57;;;;;;;;;;5073694;28;20229;-66
2023/04/04 01:46:55;;;;;;;59.72;5.28;;;;;;;;;;5073384;28;20708;-68
2023/04/04 01:49:22;;;;;;;60.03;5.05;;;;;;;;;;5072987;28;20232;-66
2023/04/04 01:51:50;;;;;;;60.72;5.28;;;;;;;;;;5073297;28;20670;-67
2023/04/04 01:54:18;;;;;;;58.80;4.82;;;;;;;;;;5073616;28;20242;-68
2023/04/04 01:56:45;;;;;;;58.90;4.82;;;;;;;;;;5073401;28;20257;-68
2023/04/04 01:59:12;;;;;;;59.90;5.07;;;;;;;;;;5073000;28;20227;-68
2023/04/04 02:01:42;;;;;;;60.65;5.85;;;;;;;;;;5073266;28;20659;-66
2023/04/04 02:04:11;;;;;;;62.83;5.22;;;;;;;;;;5072952;28;20254;-65
2023/04/04 02:06:38;;;;;;;59.38;5.13;;;;;;;;;;5073271;28;20198;-66
2023/04/04 02:09:05;;;;;;;59.35;4.80;;;;;;;;;;5072685;28;20779;-66
2023/04/04 02:11:33;;;;;;;60.38;5.47;;;;;;;;;;5073380;28;20246;-67
2023/04/04 02:14:00;;;;;;;62.95;6.13;;;;;;;;;;5072950;28;20223;-67
2023/04/04 02:16:27;;;;;;;58.83;5.00;;;;;;;;;;5072820;28;20315;-66
2023/04/04 02:18:56;;;;;;;60.55;5.15;;;;;;;;;;5072461;28;20227;-67
2023/04/04 02:21:24;;;;;;;61.83;5.25;;;;;;;;;;5072899;28;20211;-66
2023/04/04 02:23:51;;;;;;;60.38;5.55;;;;;;;;;;5072535;28;20731;-67
2023/04/04 02:26:18;;;;;;;59.75;5.10;;;;;;;;;;5072819;28;20204;-66
2023/04/04 02:28:45;;;;;;;60.67;5.75;;;;;;;;;;5072412;28;20600;-66
2023/04/04 02:31:12;;;;;;;60.15;5.45;;;;;;;;;;5072676;28;20215;-67
2023/04/04 02:33:40;;;;;;;61.38;6.20;;;;;;;;;;5072533;28;20200;-66
2023/04/04 02:36:08;;;;;;;59.47;5.32;;;;;;;;;;5072647;28;20576;-67
2023/04/04 02:38:35;;;;;;;63.83;5.80;;;;;;;;;;5072018;28;20719;-67
2023/04/04 02:41:02;;;;;;;60.50;5.30;;;;;;;;;;5072271;28;20684;-68
2023/04/04 02:43:30;;;;;;;63.15;5.75;;;;;;;;;;5072125;28;20228;-65
2023/04/04 02:45:57;;;;;;;62.60;6.22;;;;;;;;;;5072598;28;20214;-67
2023/04/04 02:48:24;;;;;;;60.45;5.88;;;;;;;;;;5072060;28;20229;-66
2023/04/04 02:50:51;;;;;;;62.38;6.45;;;;;;;;;;5072400;28;20214;-67
2023/04/04 02:53:20;;;;;;;61.00;5.72;;;;;;;;;;5072325;28;20211;-66
2023/04/04 02:55:47;;;;;;;61.13;5.80;;;;;;;;;;5072088;28;20216;-68
2023/04/04 02:58:15;;;;;;;60.10;5.43;;;;;;;;;;5071815;28;20607;-66
2023/04/04 03:00:42;;;;;;;61.25;6.03;;;;;;;;;;5072090;28;20746;-66
2023/04/04 03:03:09;;;;;;;60.05;5.15;;;;;;;;;;5072253;28;20204;-66
2023/04/04 03:05:36;;;;;;;61.97;5.47;;;;;;;;;;5072002;28;20208;-66
2023/04/04 03:08:03;;;;;;;59.95;5.55;;;;;;;;;;5072001;28;20228;-66
2023/04/04 03:10:32;;;;;;;60.25;5.32;;;;;;;;;;5071752;28;20208;-67
2023/04/04 03:12:59;;;;;;;59.88;5.50;;;;;;;;;;5072146;28;20227;-66
2023/04/04 03:15:26;;;;;;;62.55;5.70;;;;;;;;;;5072527;28;20214;-66
2023/04/04 03:17:53;;;;;;;61.25;5.70;;;;;;;;;;5071823;28;20234;-66
2023/04/04 03:20:21;;;;;;;59.33;4.95;;;;;;;;;;5071713;28;20212;-66
2023/04/04 03:22:48;;;;;;;61.75;5.60;;;;;;;;;;5072022;28;20577;-66
2023/04/04 03:25:15;;;;;;;61.70;5.30;;;;;;;;;;5072051;28;20232;-66
2023/04/04 03:27:44;;;;;;;60.45;5.50;;;;;;;;;;5071955;28;20225;-66
2023/04/04 03:30:11;;;;;;;59.85;5.63;;;;;;;;;;5071406;28;20208;-67
2023/04/04 03:32:39;;;;;;;59.60;5.50;;;;;;;;;;5071906;28;20212;-68
2023/04/04 03:35:06;;;;;;;59.15;5.20;;;;;;;;;;5071809;28;20202;-66
2023/04/04 03:37:34;;;;;;;60.63;5.53;;;;;;;;;;5071655;28;20228;-66
2023/04/04 03:40:01;;;;;;;59.55;5.93;;;;;;;;;;5071220;28;20201;-66
2023/04/04 03:42:28;;;;;;;61.58;5.35;;;;;;;;;;5071589;28;20701;-68
2023/04/04 03:44:56;;;;;;;63.17;5.80;;;;;;;;;;5071645;28;20248;-66
2023/04/04 03:47:24;;;;;;;60.40;5.95;;;;;;;;;;5071949;28;20228;-66
2023/04/04 03:49:51;;;;;;;61.15;6.47;;;;;;;;;;5071256;28;20219;-67
2023/04/04 03:52:18;;;;;;;59.72;5.70;;;;;;;;;;5071916;28;20218;-68
2023/04/04 03:54:46;;;;;;;59.60;5.90;;;;;;;;;;5076026;28;20208;-66
2023/04/04 03:57:13;;;;;;;60.60;6.18;;;;;;;;;;5075461;28;20748;-68
2023/04/04 03:59:40;;;;;;;61.85;6.55;;;;;;;;;;5075332;28;20207;-67
2023/04/04 04:02:08;;;;;;;60.70;6.43;;;;;;;;;;5075485;28;20211;-67
2023/04/04 04:04:35;;;;;;;60.05;5.72;;;;;;;;;;5075374;28;20223;-67
2023/04/04 04:07:02;;;;;;;60.60;5.95;;;;;;;;;;5075178;28;20204;-66
2023/04/04 04:09:29;;;;;;;60.30;5.80;;;;;;;;;;5074991;28;20700;-67
2023/04/04 04:11:57;;;;;;;61.83;5.75;;;;;;;;;;5075507;28;20215;-66
2023/04/04 04:14:24;;;;;;;61.25;6.28;;;;;;;;;;5075454;28;20218;-67
2023/04/04 04:16:51;;;;;;;59.97;5.38;;;;;;;;;;5075211;28;20680;-67
2023/04/04 04:19:19;;;;;;;64.32;6.00;;;;;;;;;;5074993;28;20231;-67
2023/04/04 04:21:46;;;;;;;63.05;6.13;;;;;;;;;;5075013;28;20216;-66
2023/04/04 04:24:14;;;;;;;59.67;5.82;;;;;;;;;;5074982;28;20635;-67
2023/04/04 04:26:41;;;;;;;62.92;6.50;;;;;;;;;;5075168;28;20203;-66
2023/04/04 04:29:08;;;;;;;61.35;5.95;;;;;;;;;;5074580;28;20231;-68
2023/04/04 04:31:35;;;;;;;59.53;5.70;;;;;;;;;;5074922;28;20207;-66
2023/04/04 04:34:05;;;;;;;62.72;5.78;;;;;;;;;;5074704;28;20295;-67
2023/04/04 04:36:33;;;;;;;60.78;6.00;;;;;;;;;;5074845;28;20219;-67
2023/04/04 04:39:01;;;;;;;62.60;6.22;;;;;;;;;;5074658;28;20236;-67
2023/04/04 04:41:28;;;;;;;63.28;5.60;;;;;;;;;;5074940;28;20205;-67
2023/04/04 04:43:55;;;;;;;61.97;5.85;;;;;;;;;;5074869;28;20234;-66
2023/04/04 04:46:23;;;;;;;60.65;6.20;;;;;;;;;;5074828;28;20672;-67
2023/04/04 04:48:50;;;;;;;61.75;6.10;;;;;;;;;;5074078;28;20228;-66
2023/04/04 04:51:17;;;;;;;60.30;6.38;;;;;;;;;;5074696;28;20218;-66
2023/04/04 04:53:45;;;;;;;65.90;5.93;;;;;;;;;;5074452;28;20221;-68
2023/04/04 04:56:12;;;;;;;59.95;5.63;;;;;;;;;;5074477;28;20730;-66
2023/04/04 04:58:40;;;;;;;61.67;6.30;;;;;;;;;;5074041;28;20315;-66
2023/04/04 05:01:07;;;;;;;59.97;5.88;;;;;;;;;;5074269;28;20212;-67
2023/04/04 05:03:34;;;;;;;62.63;7.05;;;;;;;;;;5074732;28;20497;-67
2023/04/04 05:06:02;;;;;;;62.13;6.40;;;;;;;;;;5073757;28;20204;-66
2023/04/04 05:08:29;;;;;;;65.03;6.88;;;;;;;;;;5074010;28;20244;-67
2023/04/04 05:10:57;;;;;;;60.65;6.15;;;;;;;;;;5074185;28;20212;-66
2023/04/04 05:13:24;;;;;;;61.30;6.05;;;;;;;;;;5074161;28;20222;-66
2023/04/04 05:15:51;;;;;;;61.30;6.20;;;;;;;;;;5074013;28;20236;-66
2023/04/04 05:18:18;;;;;;;60.08;5.93;;;;;;;;;;5074042;28;20239;-66
2023/04/04 05:20:50;;;;;;;62.05;6.70;;;;;;;;;;5073953;28;20215;-67
2023/04/04 05:23:17;;;;;;;65.25;6.05;;;;;;;;;;5074007;28;20691;-65
2023/04/04 05:25:45;;;;;;;63.25;6.80;;;;;;;;;;5073911;28;20232;-66
2023/04/04 05:28:13;;;;;;;61.70;6.53;;;;;;;;;;5073634;28;20738;-67
2023/04/04 05:30:40;;;;;;;62.30;6.20;;;;;;;;;;5073815;28;20208;-66
2023/04/04 05:33:07;;;;;;;61.83;6.95;;;;;;;;;;5073709;28;20207;-67
2023/04/04 05:35:35;;;;;;;66.78;7.22;;;;;;;;;;5073852;28;20205;-66
2023/04/04 05:38:02;;;;;;;60.35;6.40;;;;;;;;;;5073652;28;20316;-66
2023/04/04 05:40:29;;;;;;;62.05;6.88;;;;;;;;;;5073543;28;20318;-66
2023/04/04 05:42:56;;;;;;;60.80;7.20;;;;;;;;;;5073488;28;20722;-66
2023/04/04 05:45:25;;;;;;;60.08;6.78;;;;;;;;;;5073676;28;20236;-67
2023/04/04 05:47:52;;;;;;;60.58;6.35;;;;;;;;;;5073478;28;20228;-66
2023/04/04 05:50:19;;;;;;;63.60;8.95;;;;;;;;;;5073045;28;20676;-66
2023/04/04 05:52:47;;;;;;;62.47;6.40;;;;;;;;;;5073493;28;20300;-66
2023/04/04 05:55:14;;;;;;;63.08;6.80;;;;;;;;;;5073456;28;20205;-67
2023/04/04 05:57:47;;;;;;;60.20;6.40;;;;;;;;;;5073434;28;20239;-66
2023/04/04 06:00:16;;;;;;;60.35;6.45;;;;;;;;;;5073055;28;20273;-66
2023/04/04 06:02:44;;;;;;;67.68;8.00;;;;;;;;;;5073279;28;20587;-67
2023/04/04 06:05:11;;;;;;;62.85;6.85;;;;;;;;;;5073223;28;20726;-66
2023/04/04 06:07:38;;;;;;;62.25;7.00;;;;;;;;;;5072977;28;20255;-67
2023/04/04 06:10:06;;;;;;;61.50;7.18;;;;;;;;;;5072898;28;20218;-67
2023/04/04 06:12:33;;;;;;;61.55;6.97;;;;;;;;;;5073168;28;20566;-66
2023/04/04 06:15:00;;;;;;;62.30;6.68;;;;;;;;;;5073082;28;20204;-67
2023/04/04 06:17:27;;;;;;;61.05;6.07;;;;;;;;;;5071989;28;20592;-66
2023/04/04 06:19:56;;;;;;;61.63;6.95;;;;;;;;;;5072610;28;20209;-67
2023/04/04 06:22:23;;;;;;;63.58;6.63;;;;;;;;;;5072745;28;20216;-67
2023/04/04 06:24:50;;;;;;;60.08;6.63;;;;;;;;;;5072782;28;20379;-67
2023/04/04 06:27:17;;;;;;;62.10;6.80;;;;;;;;;;5072806;28;20243;-67
2023/04/04 06:29:45;;;;;;;61.45;6.80;;;;;;;;;;5072762;28;20561;-67
2023/04/04 06:32:13;;;;;;;60.50;6.05;;;;;;;;;;5072564;28;20507;-66
2023/04/04 06:34:40;;;;;;;62.80;7.18;;;;;;;;;;5073244;28;20201;-67
2023/04/04 06:37:08;;;;;;;63.58;6.95;;;;;;;;;;5072792;28;20250;-67
2023/04/04 06:39:36;;;;;;;63.65;6.50;;;;;;;;;;5072353;28;20209;-68
2023/04/04 06:42:03;;;;;;;62.10;7.13;;;;;;;;;;5072384;28;20727;-68
2023/04/04 06:44:30;;;;;;;60.58;6.80;;;;;;;;;;5072491;28;20226;-66
2023/04/04 06:46:57;;;;;;;61.50;6.50;;;;;;;;;;5072353;28;20212;-67
2023/04/04 06:49:24;;;;;;;61.33;6.47;;;;;;;;;;5071921;28;20205;-66
2023/04/04 06:51:52;;;;;;;64.90;6.80;;;;;;;;;;5072310;28;20293;-67
2023/04/04 06:54:21;;;;;;;60.58;6.25;;;;;;;;;;5072423;28;20204;-67
2023/04/04 06:56:48;;;;;;;60.22;6.55;;;;;;;;;;5072241;28;20211;-66
2023/04/04 06:59:15;;;;;;;62.42;7.68;;;;;;;;;;5071786;28;20225;-67
2023/04/04 07:01:42;;;;;;;65.00;6.50;;;;;;;;;;5072187;28;20577;-67
2023/04/04 07:04:09;;;;;;;60.70;6.38;;;;;;;;;;5072005;28;20201;-69
2023/04/04 07:06:36;;;;;;;61.33;6.53;;;;;;;;;;5072199;28;20209;-67
2023/04/04 07:09:04;;;;;;;61.28;6.28;;;;;;;;;;5071791;28;20231;-69
2023/04/04 07:11:32;;;;;;;64.53;7.32;;;;;;;;;;5072467;28;20254;-67
2023/04/04 07:14:00;;;;;;;61.35;6.25;;;;;;;;;;5072026;28;20213;-67
2023/04/04 07:16:27;;;;;;;62.20;6.65;;;;;;;;;;5071741;28;20665;-67
2023/04/04 07:18:54;;;;;;;66.97;6.97;;;;;;;;;;5071743;28;20235;-68
2023/04/04 07:21:21;;;;;;;60.95;6.43;;;;;;;;;;5072063;28;20254;-66
2023/04/04 07:23:49;;;;;;;60.33;5.90;;;;;;;;;;5071941;28;20217;-67
2023/04/04 07:26:16;;;;;;;59.55;5.55;;;;;;;;;;5071856;28;20730;-68
2023/04/04 07:28:45;;;;;;;61.22;5.25;;;;;;;;;;5071111;28;20224;-67
2023/04/04 07:31:13;;;;;;;59.65;5.22;;;;;;;;;;5071599;28;20231;-67
2023/04/04 07:33:40;;;;;;;61.28;5.20;;;;;;;;;;5071963;28;20244;-67
2023/04/04 07:36:08;;;;;;;60.67;5.13;;;;;;;;;;5071954;28;20289;-67
2023/04/04 07:38:36;;;;;;;62.38;6.10;;;;;;;;;;5071428;28;20232;-67
2023/04/04 07:41:03;;;;;;;59.50;4.82;;;;;;;;;;5071631;28;20205;-68
2023/04/04 07:43:30;;;;;;;61.08;5.30;;;;;;;;;;5071650;28;20212;-66
2023/04/04 07:45:58;;;;;;;61.03;5.18;;;;;;;;;;5071469;28;20591;-66
2023/04/04 07:48:26;;;;;;;60.15;5.30;;;;;;;;;;5071402;28;20229;-68
2023/04/04 07:50:53;;;;;;;62.55;5.13;;;;;;;;;;5071465;28;20209;-66
2023/04/04 07:53:21;;;;;;;61.10;5.03;;;;;;;;;;5071881;28;20212;-66
2023/04/04 07:55:48;;;;;;;62.90;4.85;;;;;;;;;;5071573;28;20197;-68
2023/04/04 07:58:15;;;;;;;59.25;5.38;;;;;;;;;;5071260;28;20759;-68
2023/04/04 08:00:42;;;;;;;60.40;5.18;;;;;;;;;;5071518;28;20201;-67
2023/04/04 08:03:11;;;;;;;59.53;4.97;;;;;;;;;;5071430;28;20212;-67
2023/04/04 08:05:38;;;;;;;60.50;5.20;;;;;;;;;;5071469;28;20221;-67
2023/04/04 08:08:05;;;;;;;61.80;5.45;;;;;;;;;;5071229;28;20739;-68
2023/04/04 08:10:32;;;;;;;60.72;5.50;;;;;;;;;;5071163;28;20209;-67
2023/04/04 08:12:59;;;;;;;61.05;5.05;;;;;;;;;;5071915;28;20759;-68
2023/04/04 08:15:26;;;;;;;60.30;5.25;;;;;;;;;;5071505;28;20292;-68
2023/04/04 08:17:54;;;;;;;59.80;5.30;;;;;;;;;;5071676;28;20224;-68
2023/04/04 08:20:23;;;;;;;61.65;5.45;;;;;;;;;;5071122;28;20582;-68
2023/04/04 08:22:50;;;;;;;61.65;5.10;;;;;;;;;;5071282;28;20205;-66
2023/04/04 08:25:17;;;;;;;60.47;5.00;;;;;;;;;;5071095;28;20604;-67
2023/04/04 08:27:44;;;;;;;62.17;5.00;;;;;;;;;;5071661;28;20225;-65
2023/04/04 08:30:13;;;;;;;64.65;5.07;;;;;;;;;;5071137;28;20208;-67
2023/04/04 08:32:40;;;;;;;67.25;5.18;;;;;;;;;;5071401;28;20213;-68
2023/04/04 08:35:07;;;;;;;59.88;4.90;;;;;;;;;;5071314;28;20201;-67
2023/04/04 08:37:36;;;;;;;59.53;4.95;;;;;;;;;;5071120;28;20225;-67
2023/04/04 08:40:03;;;;;;;63.40;5.50;;;;;;;;;;5072131;28;20237;-67
2023/04/04 08:42:31;;;;;;;60.25;4.75;;;;;;;;;;5075243;28;20201;-69
2023/04/04 08:45:00;;;;;;;60.42;5.25;;;;;;;;;;5074571;28;20270;-67
2023/04/04 08:47:30;;;;;;;61.63;4.70;;;;;;;;;;5074768;28;20609;-66
2023/04/04 08:50:00;;;;;;;59.28;4.97;;;;;;;;;;5074322;28;20578;-67
2023/04/04 08:52:29;;;;;;;60.00;4.80;;;;;;;;;;5074456;28;20217;-65
2023/04/04 08:54:58;;;;;;;60.28;4.60;;;;;;;;;;5074688;28;20215;-65
2023/04/04 08:57:26;;;;;;;60.50;5.43;;;;;;;;;;5074236;28;20725;-66
2023/04/04 08:59:53;;;;;;;60.33;5.13;;;;;;;;;;5074182;28;20201;-66
2023/04/04 09:02:24;;;;;;;59.88;4.70;;;;;;;;;;5074423;28;20204;-67
2023/04/04 09:04:52;;;;;;;60.78;4.68;;;;;;;;;;5074253;28;20256;-66
2023/04/04 09:07:20;;;;;;;64.32;5.35;;;;;;;;;;5074394;28;20233;-66
2023/04/04 09:09:48;;;;;;;59.58;5.22;;;;;;;;;;5074059;28;20205;-66
2023/04/04 09:12:17;;;;;;;60.63;5.32;;;;;;;;;;5074399;28;20225;-67
2023/04/04 09:14:45;;;;;;;60.97;5.10;;;;;;;;;;5074100;28;20209;-66
2023/04/04 09:17:12;;;;;;;60.47;4.90;;;;;;;;;;5074057;28;20629;-66
2023/04/04 09:19:39;;;;;;;59.17;4.45;;;;;;;;;;5073576;28;20201;-66
2023/04/04 09:22:08;;;;;;;59.50;4.97;;;;;;;;;;5073981;28;20209;-65
2023/04/04 09:24:41;;;;;;;60.30;5.03;;;;;;;;;;5074073;28;20455;-66
2023/04/04 09:27:09;;;;;;;58.70;4.50;;;;;;;;;;5073806;28;20487;-66
2023/04/04 09:29:39;;;;;;;60.37;4.77;;;;;;;;;;5073487;28;20505;-66
2023/04/04 09:32:08;;;;;;;60.77;5.63;;;;;;;;;;5073935;28;20451;-66
2023/04/04 09:34:36;;;;;;;60.80;4.93;;;;;;;;;;5073725;28;20450;-67
2023/04/04 09:37:04;;;;;;;59.77;4.37;;;;;;;;;;5073968;28;20444;-66
2023/04/04 09:39:31;;;;;;;61.30;5.17;;;;;;;;;;5073456;28;20447;-66
2023/04/04 09:41:59;;;;;;;61.17;4.80;;;;;;;;;;5073578;28;20537;-66
2023/04/04 09:44:30;;;;;;;61.03;3.97;;;;;;;;;;5073486;28;20454;-66
2023/04/04 09:47:23;;;;;;;59.73;4.57;;;;;;;;;;5073683;28;20519;-66
2023/04/04 09:49:50;;;;;;;59.87;4.30;;;;;;;;;;5073159;28;20965;-66
2023/04/04 09:52:19;;;;;;;59.70;4.53;;;;;;;;;;5073330;28;20799;-66
2023/04/04 09:54:48;;;;;;;59.57;4.80;;;;;;;;;;5073451;28;20491;-67
2023/04/04 09:57:15;;;;;;;59.80;4.10;;;;;;;;;;5073171;28;20454;-67
2023/04/04 09:59:42;;;;;;;58.87;4.50;;;;;;;;;;5072997;28;20447;-67
2023/04/04 10:02:11;;;;;;;61.90;4.50;;;;;;;;;;5073404;28;20447;-66
2023/04/04 10:04:38;;;;;;;58.60;4.10;;;;;;;;;;5073260;28;20944;-66
2023/04/04 10:07:05;;;;;;;60.87;4.63;;;;;;;;;;5072946;28;20490;-66
2023/04/04 10:09:32;;;;;;;62.07;5.20;;;;;;;;;;5072643;28;20455;-68
2023/04/04 10:12:08;;;;;;;58.97;4.10;;;;;;;;;;5072927;28;20447;-66
2023/04/04 10:14:35;;;;;;;59.33;4.07;;;;;;;;;;5073146;28;20459;-66
2023/04/04 10:17:08;;;;;;;60.90;4.37;;;;;;;;;;5072947;28;20490;-67
2023/04/04 10:19:37;;;;;;;61.07;4.70;;;;;;;;;;5072576;28;20928;-67
2023/04/04 10:22:04;;;;;;;59.20;4.50;;;;;;;;;;5072705;28;20455;-66
2023/04/04 10:24:31;;;;;;;60.67;4.50;;;;;;;;;;5072715;28;20974;-66
2023/04/04 10:26:58;;;;;;;59.60;4.30;;;;;;;;;;5072830;28;20478;-66
2023/04/04 10:29:26;;;;;;;60.60;4.33;;;;;;;;;;5072410;28;20451;-66
2023/04/04 10:31:55;;;;;;;58.40;3.90;;;;;;;;;;5072556;28;20458;-66
2023/04/04 10:34:27;;;;;;;60.17;4.77;;;;;;;;;;5072479;28;20443;-66
2023/04/04 10:37:01;;;;;;;59.07;4.30;;;;;;;;;;5072569;28;20924;-66
2023/04/04 10:39:33;;;;;;;59.80;4.27;;;;;;;;;;5072317;28;20454;-66
2023/04/04 10:42:00;;;;;;;59.37;3.80;;;;;;;;;;5072556;28;20443;-67
2023/04/04 10:44:30;;;;;;;61.10;4.43;;;;;;;;;;5072901;28;20812;-69
2023/04/04 10:46:58;;;;;;;59.37;4.20;;;;;;;;;;5072198;28;20486;-68
2023/04/04 10:49:26;;;;;;;58.37;3.60;;;;;;;;;;5072187;28;20448;-66
2023/04/04 10:51:53;;;;;;;59.17;4.27;;;;;;;;;;5072661;28;20446;-67
2023/04/04 10:54:22;;;;;;;59.17;4.10;;;;;;;;;;5072341;28;20443;-67
2023/04/04 10:56:49;;;;;;;60.00;4.60;;;;;;;;;;5072161;28;20534;-67
2023/04/04 10:59:17;;;;;;;58.87;4.40;;;;;;;;;;5071759;28;20463;-66
2023/04/04 11:01:48;;;;;;;59.43;4.50;;;;;;;;;;5072190;28;20471;-66
2023/04/04 11:04:19;;;;;;;59.37;4.20;;;;;;;;;;5072275;28;20443;-67
2023/04/04 11:07:05;;;;;;;61.70;4.53;;;;;;;;;;5072052;28;20483;-66
2023/04/04 11:09:50;;;;;;;58.63;4.00;;;;;;;;;;5071679;28;20451;-66
2023/04/04 11:12:22;;;;;;;60.53;4.20;;;;;;;;;;5072324;28;21031;-67
2023/04/04 11:14:56;;;;;;;58.60;4.07;;;;;;;;;;5072140;28;20454;-66
2023/04/04 11:17:42;;;;;;;60.27;4.10;;;;;;;;;;5071957;28;20459;-67
2023/04/04 11:20:10;;;;;;;59.40;4.27;;;;;;;;;;5071506;28;20826;-67
2023/04/04 11:22:37;;;;;;;61.30;4.10;;;;;;;;;;5071852;28;20940;-67
2023/04/04 11:25:23;;;;;;;58.60;3.97;;;;;;;;;;5071768;28;20459;-68
2023/04/04 11:27:55;;;;;;;59.30;4.10;;;;;;;;;;5071746;28;20491;-67
2023/04/04 11:30:22;;;;;;;58.70;4.33;;;;;;;;;;5071518;28;20820;-67
2023/04/04 11:32:50;;;;;;;58.30;3.80;;;;;;;;;;5071685;28;20455;-67
2023/04/04 11:35:18;;;;;;;60.50;4.20;;;;;;;;;;5071946;28;20447;-66
2023/04/04 11:37:45;;;;;;;60.63;4.13;;;;;;;;;;5071648;28;20550;-68
2023/04/04 11:40:13;;;;;;;59.60;4.30;;;;;;;;;;5071456;28;20870;-68
2023/04/04 11:42:40;;;;;;;58.07;4.20;;;;;;;;;;5071736;28;20454;-67
2023/04/04 11:45:09;;;;;;;58.97;3.50;;;;;;;;;;5071674;28;20457;-67
2023/04/04 11:47:36;;;;;;;58.90;4.00;;;;;;;;;;5071638;28;20487;-67
2023/04/04 11:50:08;;;;;;;59.07;4.23;;;;;;;;;;5071448;28;20473;-68
2023/04/04 11:52:36;;;;;;;59.97;4.50;;;;;;;;;;5071736;28;20457;-68
2023/04/04 11:55:04;;;;;;;58.83;4.17;;;;;;;;;;5071601;28;20447;-68
2023/04/04 11:57:34;;;;;;;58.30;3.67;;;;;;;;;;5071525;28;20471;-68
2023/04/04 12:00:07;;;;;;;58.83;3.80;;;;;;;;;;5071127;28;20952;-67
2023/04/04 12:02:36;;;;;;;59.40;4.63;;;;;;;;;;5071614;28;20440;-66
2023/04/04 12:05:05;;;;;;;59.30;3.77;;;;;;;;;;5071717;28;20455;-67
2023/04/04 12:07:32;;;;;;;58.40;3.53;;;;;;;;;;5071595;28;20554;-67
2023/04/04 12:09:59;;;;;;;59.00;3.97;;;;;;;;;;5071148;28;20443;-71
2023/04/04 12:12:27;;;;;;;59.83;4.03;;;;;;;;;;5071295;28;20447;-67
2023/04/04 12:14:54;;;;;;;58.77;3.80;;;;;;;;;;5073038;28;20531;-67
2023/04/04 12:17:22;;;;;;;58.93;4.23;;;;;;;;;;5075205;28;20520;-67
2023/04/04 12:19:50;;;;;;;58.20;3.80;;;;;;;;;;5074997;28;20447;-67
2023/04/04 12:22:18;;;;;;;58.10;3.90;;;;;;;;;;5075196;28;20447;-67
2023/04/04 12:24:45;;;;;;;59.43;4.20;;;;;;;;;;5075049;28;20497;-68
2023/04/04 12:27:12;;;;;;;58.97;3.87;;;;;;;;;;5074822;28;20439;-67
2023/04/04 12:29:40;;;;;;;58.20;4.10;;;;;;;;;;5074833;28;20442;-66
2023/04/04 12:32:09;;;;;;;60.40;4.20;;;;;;;;;;5075048;28;20453;-67
2023/04/04 12:34:42;;;;;;;57.80;3.47;;;;;;;;;;5074943;28;20507;-68
2023/04/04 12:37:12;;;;;;;58.40;3.80;;;;;;;;;;5074713;28;20483;-67
2023/04/04 12:39:42;;;;;;;58.77;3.93;;;;;;;;;;5074277;28;20450;-67
2023/04/04 12:42:11;;;;;;;58.47;3.90;;;;;;;;;;5074966;28;20525;-68
2023/04/04 12:44:39;;;;;;;58.83;4.10;;;;;;;;;;5074870;28;20874;-67
2023/04/04 12:47:07;;;;;;;59.27;4.70;;;;;;;;;;5074720;28;20828;-67
2023/04/04 12:49:36;;;;;;;59.10;3.83;;;;;;;;;;5074342;28;20876;-66
2023/04/04 12:52:06;;;;;;;61.20;4.67;;;;;;;;;;5074408;28;20508;-67
2023/04/04 12:54:35;;;;;;;59.87;4.27;;;;;;;;;;5074798;28;20451;-68
2023/04/04 12:57:04;;;;;;;59.27;3.67;;;;;;;;;;5074673;28;20576;-67
2023/04/04 12:59:32;;;;;;;59.03;4.23;;;;;;;;;;5074064;28;20962;-68
2023/04/04 13:02:01;;;;;;;59.50;4.07;;;;;;;;;;5074549;28;20454;-67
2023/04/04 13:04:28;;;;;;;59.67;4.13;;;;;;;;;;5074228;28;20461;-68
2023/04/04 13:06:55;;;;;;;58.20;4.07;;;;;;;;;;5074538;28;20450;-69
2023/04/04 13:09:23;;;;;;;59.00;4.00;;;;;;;;;;5074006;28;20474;-67
2023/04/04 13:11:58;;;;;;;58.70;3.77;;;;;;;;;;5074388;28;20447;-67
2023/04/04 13:14:26;;;;;;;59.40;3.90;;;;;;;;;;5074143;28;20443;-67
2023/04/04 13:17:03;;;;;;;59.13;4.10;;;;;;;;;;5074025;28;20487;-65
2023/04/04 13:19:30;;;;;;;62.60;4.33;;;;;;;;;;5073751;28;20936;-65
2023/04/04 13:21:57;;;;;;;58.60;3.90;;;;;;;;;;5074121;28;20450;-67
2023/04/04 13:24:24;;;;;;;57.47;3.70;;;;;;;;;;5074125;28;20455;-68
2023/04/04 13:26:51;;;;;;;58.43;3.90;;;;;;;;;;5073453;28;20444;-67
2023/04/04 13:29:20;;;;;;;59.50;3.87;;;;;;;;;;5073443;28;20987;-68
2023/04/04 13:31:47;;;;;;;58.67;3.97;;;;;;;;;;5073816;28;20516;-67
2023/04/04 13:34:15;;;;;;;59.03;3.57;;;;;;;;;;5074206;28;20448;-67
2023/04/04 13:36:43;;;;;;;58.30;3.97;;;;;;;;;;5073710;28;20479;-70
2023/04/04 13:39:10;;;;;;;59.20;4.03;;;;;;;;;;5073255;28;20475;-69
2023/04/04 13:41:37;;;;;;;60.57;4.27;;;;;;;;;;5073695;28;20457;-67
2023/04/04 13:44:04;;;;;;;58.97;3.60;;;;;;;;;;5073555;28;20451;-69
2023/04/04 13:46:32;;;;;;;60.60;4.87;;;;;;;;;;5073581;28;20453;-68
2023/04/04 13:49:00;;;;;;;58.60;4.17;;;;;;;;;;5073130;28;21014;-67
2023/04/04 13:51:27;;;;;;;58.60;3.90;;;;;;;;;;5073539;28;20458;-67
2023/04/04 13:53:54;;;;;;;58.77;4.00;;;;;;;;;;5073389;28;21051;-69
2023/04/04 13:56:21;;;;;;;58.60;4.37;;;;;;;;;;5073350;28;20443;-65
2023/04/04 13:58:49;;;;;;;60.10;4.20;;;;;;;;;;5072822;28;20463;-66
2023/04/04 14:01:16;;;;;;;61.60;4.10;;;;;;;;;;5073525;28;20847;-67
2023/04/04 14:03:45;;;;;;;62.07;5.03;;;;;;;;;;5073442;28;20831;-65
2023/04/04 14:06:12;;;;;;;60.80;4.43;;;;;;;;;;5073453;28;20822;-67
2023/04/04 14:08:39;;;;;;;59.40;4.13;;;;;;;;;;5072772;28;20455;-65
2023/04/04 14:11:06;;;;;;;58.07;3.77;;;;;;;;;;5073189;28;20443;-67
2023/04/04 14:13:35;;;;;;;58.53;3.93;;;;;;;;;;5073414;28;20457;-65
2023/04/04 14:16:02;;;;;;;58.60;4.07;;;;;;;;;;5073070;28;20443;-65
2023/04/04 14:18:29;;;;;;;58.60;4.30;;;;;;;;;;5072712;28;20913;-69
2023/04/04 14:20:57;;;;;;;58.57;4.30;;;;;;;;;;5072932;28;20447;-66
2023/04/04 14:23:24;;;;;;;58.97;4.17;;;;;;;;;;5072657;28;20939;-65
2023/04/04 14:25:51;;;;;;;59.37;4.90;;;;;;;;;;5072696;28;20447;-67
2023/04/04 14:28:19;;;;;;;58.13;4.00;;;;;;;;;;5072751;28;20838;-67
2023/04/04 14:30:46;;;;;;;59.47;4.13;;;;;;;;;;5072666;28;20451;-65
2023/04/04 14:33:14;;;;;;;61.20;4.30;;;;;;;;;;5072816;28;20882;-65
2023/04/04 14:35:41;;;;;;;59.10;4.47;;;;;;;;;;5072629;28;20443;-67